This is the latest recevied weather packets stored in our database for station/object IZ2MHJ-3. If no packets are shown the sender has not sent any weather packets the latest 10 day(s).
| Time | Temp. | Humidity | Pressure | Rain* | Wind** | Luminosity | Snow |
|---|---|---|---|---|---|---|---|
| 1787964055 | 21.67° C | 86% | 1014.3 hPa | - | - | - | - |
| 1787962854 | 22.22° C | 86% | 1014.4 hPa | - | - | - | - |
| 1787961654 | 21.67° C | 87% | 1014.5 hPa | - | - | - | - |
| 1787960454 | 22.22° C | 85% | 1014.4 hPa | - | - | - | - |
| 1787959254 | 22.22° C | 86% | 1014.4 hPa | - | - | - | - |
| 1787958053 | 21.67° C | 88% | 1014.3 hPa | - | - | - | - |
| 1787956853 | 21.67° C | 89% | 1014.2 hPa | - | - | - | - |
| 1787955653 | 22.22° C | 87% | 1014.1 hPa | - | - | - | - |
| 1787954452 | 22.22° C | 87% | 1014.1 hPa | - | - | - | - |
| 1787953252 | 21.67° C | 88% | 1014 hPa | - | - | - | - |
| 1787952052 | 21.11° C | 92% | 1014.2 hPa | - | - | - | - |
| 1787950851 | 22.22° C | 85% | 1013.9 hPa | - | - | - | - |
| 1787949651 | 22.22° C | 87% | 1013.9 hPa | - | - | - | - |
| 1787948451 | 21.11° C | 91% | 1014.4 hPa | - | - | - | - |
| 1787947250 | 23.33° C | 79% | 1014.2 hPa | - | - | - | - |
| 1787946050 | 23.33° C | 80% | 1014.1 hPa | - | - | - | - |
| 1787944850 | 23.33° C | 79% | 1014.1 hPa | - | - | - | - |
| 1787943650 | 23.33° C | 83% | 1014 hPa | - | - | - | - |
| 1787942449 | 22.78° C | 86% | 1014.5 hPa | - | - | - | - |
| 1787941249 | 22.78° C | 86% | 1014.4 hPa | - | - | - | - |
| 1787940049 | 23.33° C | 81% | 1014.6 hPa | - | - | - | - |
| 1787938848 | 23.89° C | 77% | 1015.3 hPa | - | - | - | - |
| 1787937648 | 23.89° C | 76% | 1016.6 hPa | - | - | - | - |
| 1787936448 | 24.44° C | 75% | 1015.8 hPa | - | - | - | - |
| 1787935247 | 25.56° C | 84% | 1015.9 hPa | - | - | - | - |
* Rain since midnight (hover to see other rain measurements)
** Current wind speed in m/s (hover to see current wind gust speed)